sensor_id;sensor_type;location;lat;lon;timestamp;P1;durP1;ratioP1;P2;durP2;ratioP2
54241;SDS011;40156;51.080;17.082;2022-12-07T00:01:22;8.82;;;4.75;;
54241;SDS011;40156;51.080;17.082;2022-12-07T00:03:51;8.52;;;4.82;;
54241;SDS011;40156;51.080;17.082;2022-12-07T00:06:20;8.57;;;4.65;;
54241;SDS011;40156;51.080;17.082;2022-12-07T00:08:47;11.80;;;5.07;;
54241;SDS011;40156;51.080;17.082;2022-12-07T00:11:17;9.38;;;5.10;;
54241;SDS011;40156;51.080;17.082;2022-12-07T00:13:45;8.20;;;4.82;;
54241;SDS011;40156;51.080;17.082;2022-12-07T00:16:17;8.65;;;4.35;;
54241;SDS011;40156;51.080;17.082;2022-12-07T00:18:45;8.93;;;4.47;;
54241;SDS011;40156;51.080;17.082;2022-12-07T00:21:13;14.07;;;5.65;;
54241;SDS011;40156;51.080;17.082;2022-12-07T00:23:42;11.15;;;5.65;;
54241;SDS011;40156;51.080;17.082;2022-12-07T00:26:13;8.57;;;4.88;;
54241;SDS011;40156;51.080;17.082;2022-12-07T00:28:44;8.13;;;4.00;;
54241;SDS011;40156;51.080;17.082;2022-12-07T00:31:12;8.65;;;3.80;;
54241;SDS011;40156;51.080;17.082;2022-12-07T00:33:40;5.80;;;3.00;;
54241;SDS011;40156;51.080;17.082;2022-12-07T00:36:11;5.70;;;3.38;;
54241;SDS011;40156;51.080;17.082;2022-12-07T00:38:39;6.57;;;3.90;;
54241;SDS011;40156;51.080;17.082;2022-12-07T00:41:17;7.07;;;3.38;;
54241;SDS011;40156;51.080;17.082;2022-12-07T00:43:46;5.38;;;2.63;;
54241;SDS011;40156;51.080;17.082;2022-12-07T00:46:14;6.13;;;3.63;;
54241;SDS011;40156;51.080;17.082;2022-12-07T00:48:42;5.22;;;2.85;;
54241;SDS011;40156;51.080;17.082;2022-12-07T00:51:10;6.03;;;3.17;;
54241;SDS011;40156;51.080;17.082;2022-12-07T00:53:38;5.43;;;2.88;;
54241;SDS011;40156;51.080;17.082;2022-12-07T00:56:26;3.00;;;2.15;;
54241;SDS011;40156;51.080;17.082;2022-12-07T00:58:54;7.03;;;2.53;;
54241;SDS011;40156;51.080;17.082;2022-12-07T01:01:23;4.25;;;2.67;;
54241;SDS011;40156;51.080;17.082;2022-12-07T01:03:50;4.47;;;2.83;;
54241;SDS011;40156;51.080;17.082;2022-12-07T01:06:19;4.20;;;2.65;;
54241;SDS011;40156;51.080;17.082;2022-12-07T01:08:46;4.00;;;2.30;;
54241;SDS011;40156;51.080;17.082;2022-12-07T01:11:15;4.93;;;2.58;;
54241;SDS011;40156;51.080;17.082;2022-12-07T01:13:43;3.03;;;1.98;;
54241;SDS011;40156;51.080;17.082;2022-12-07T01:16:12;4.35;;;2.42;;
54241;SDS011;40156;51.080;17.082;2022-12-07T01:18:40;4.40;;;2.72;;
54241;SDS011;40156;51.080;17.082;2022-12-07T01:21:11;4.70;;;2.90;;
54241;SDS011;40156;51.080;17.082;2022-12-07T01:23:39;5.57;;;2.77;;
54241;SDS011;40156;51.080;17.082;2022-12-07T01:26:08;4.13;;;2.03;;
54241;SDS011;40156;51.080;17.082;2022-12-07T01:28:36;4.63;;;2.58;;
54241;SDS011;40156;51.080;17.082;2022-12-07T01:31:08;3.05;;;2.17;;
54241;SDS011;40156;51.080;17.082;2022-12-07T01:33:36;2.92;;;1.65;;
54241;SDS011;40156;51.080;17.082;2022-12-07T01:36:21;4.28;;;2.63;;
54241;SDS011;40156;51.080;17.082;2022-12-07T01:38:50;2.95;;;2.05;;
54241;SDS011;40156;51.080;17.082;2022-12-07T01:41:18;3.58;;;2.00;;
54241;SDS011;40156;51.080;17.082;2022-12-07T01:46:32;3.65;;;2.33;;
54241;SDS011;40156;51.080;17.082;2022-12-07T01:48:59;4.55;;;2.45;;
54241;SDS011;40156;51.080;17.082;2022-12-07T01:51:28;4.85;;;2.40;;
54241;SDS011;40156;51.080;17.082;2022-12-07T01:53:55;4.25;;;2.15;;
54241;SDS011;40156;51.080;17.082;2022-12-07T01:56:24;3.55;;;1.98;;
54241;SDS011;40156;51.080;17.082;2022-12-07T01:58:52;4.10;;;2.10;;
54241;SDS011;40156;51.080;17.082;2022-12-07T02:01:20;5.68;;;2.70;;
54241;SDS011;40156;51.080;17.082;2022-12-07T02:03:47;3.78;;;2.28;;
54241;SDS011;40156;51.080;17.082;2022-12-07T02:06:17;3.40;;;2.10;;
54241;SDS011;40156;51.080;17.082;2022-12-07T02:08:46;2.65;;;1.77;;
54241;SDS011;40156;51.080;17.082;2022-12-07T02:14:36;2.40;;;1.77;;
54241;SDS011;40156;51.080;17.082;2022-12-07T02:19:42;3.80;;;2.20;;
54241;SDS011;40156;51.080;17.082;2022-12-07T02:25:47;4.60;;;1.60;;
54241;SDS011;40156;51.080;17.082;2022-12-07T02:30:15;2.80;;;1.98;;
54241;SDS011;40156;51.080;17.082;2022-12-07T02:32:49;4.53;;;1.90;;
54241;SDS011;40156;51.080;17.082;2022-12-07T02:40:27;6.82;;;1.65;;
54241;SDS011;40156;51.080;17.082;2022-12-07T02:42:59;2.53;;;1.30;;
54241;SDS011;40156;51.080;17.082;2022-12-07T02:45:27;2.53;;;1.38;;
54241;SDS011;40156;51.080;17.082;2022-12-07T02:47:57;2.00;;;1.25;;
54241;SDS011;40156;51.080;17.082;2022-12-07T02:50:26;3.63;;;1.38;;
54241;SDS011;40156;51.080;17.082;2022-12-07T02:52:53;1.88;;;1.05;;
54241;SDS011;40156;51.080;17.082;2022-12-07T02:55:23;1.58;;;1.27;;
54241;SDS011;40156;51.080;17.082;2022-12-07T03:00:51;3.50;;;1.50;;
54241;SDS011;40156;51.080;17.082;2022-12-07T03:03:19;2.55;;;1.63;;
54241;SDS011;40156;51.080;17.082;2022-12-07T03:10:54;2.10;;;1.58;;
54241;SDS011;40156;51.080;17.082;2022-12-07T03:18:31;3.25;;;1.73;;
54241;SDS011;40156;51.080;17.082;2022-12-07T03:21:01;3.17;;;1.60;;
54241;SDS011;40156;51.080;17.082;2022-12-07T03:23:29;3.30;;;1.95;;
54241;SDS011;40156;51.080;17.082;2022-12-07T03:26:00;3.25;;;1.77;;
54241;SDS011;40156;51.080;17.082;2022-12-07T03:28:32;2.55;;;1.70;;
54241;SDS011;40156;51.080;17.082;2022-12-07T03:31:10;3.60;;;1.67;;
54241;SDS011;40156;51.080;17.082;2022-12-07T03:39:57;2.80;;;1.80;;
54241;SDS011;40156;51.080;17.082;2022-12-07T03:42:28;4.10;;;2.40;;
54241;SDS011;40156;51.080;17.082;2022-12-07T03:44:56;3.13;;;2.00;;
54241;SDS011;40156;51.080;17.082;2022-12-07T03:47:29;3.17;;;1.77;;
54241;SDS011;40156;51.080;17.082;2022-12-07T03:49:59;4.22;;;2.40;;
54241;SDS011;40156;51.080;17.082;2022-12-07T03:52:35;6.33;;;3.23;;
54241;SDS011;40156;51.080;17.082;2022-12-07T03:57:33;3.03;;;1.80;;
54241;SDS011;40156;51.080;17.082;2022-12-07T04:00:01;5.32;;;2.92;;
54241;SDS011;40156;51.080;17.082;2022-12-07T04:02:30;4.35;;;2.65;;
54241;SDS011;40156;51.080;17.082;2022-12-07T04:04:58;5.93;;;3.00;;
54241;SDS011;40156;51.080;17.082;2022-12-07T04:10:40;3.33;;;2.25;;
54241;SDS011;40156;51.080;17.082;2022-12-07T04:13:07;4.45;;;2.85;;
54241;SDS011;40156;51.080;17.082;2022-12-07T04:15:35;3.38;;;2.05;;
54241;SDS011;40156;51.080;17.082;2022-12-07T04:18:02;2.85;;;1.40;;
54241;SDS011;40156;51.080;17.082;2022-12-07T04:20:30;3.38;;;2.30;;
54241;SDS011;40156;51.080;17.082;2022-12-07T04:22:57;3.60;;;1.85;;
54241;SDS011;40156;51.080;17.082;2022-12-07T04:25:25;2.45;;;1.70;;
54241;SDS011;40156;51.080;17.082;2022-12-07T04:27:52;4.70;;;1.95;;
54241;SDS011;40156;51.080;17.082;2022-12-07T04:30:20;2.55;;;1.42;;
54241;SDS011;40156;51.080;17.082;2022-12-07T04:32:47;4.53;;;1.90;;
54241;SDS011;40156;51.080;17.082;2022-12-07T04:35:15;2.65;;;1.80;;
54241;SDS011;40156;51.080;17.082;2022-12-07T04:37:42;1.98;;;1.52;;
54241;SDS011;40156;51.080;17.082;2022-12-07T04:40:10;2.75;;;1.88;;
54241;SDS011;40156;51.080;17.082;2022-12-07T04:42:38;2.65;;;1.70;;
54241;SDS011;40156;51.080;17.082;2022-12-07T04:45:06;2.05;;;1.38;;
54241;SDS011;40156;51.080;17.082;2022-12-07T04:47:33;3.15;;;1.83;;
54241;SDS011;40156;51.080;17.082;2022-12-07T04:50:01;2.08;;;1.42;;
54241;SDS011;40156;51.080;17.082;2022-12-07T04:52:29;3.92;;;2.25;;
54241;SDS011;40156;51.080;17.082;2022-12-07T04:54:57;3.08;;;1.80;;
54241;SDS011;40156;51.080;17.082;2022-12-07T04:57:24;2.15;;;1.48;;
54241;SDS011;40156;51.080;17.082;2022-12-07T04:59:52;3.30;;;2.00;;
54241;SDS011;40156;51.080;17.082;2022-12-07T05:02:19;4.10;;;1.90;;
54241;SDS011;40156;51.080;17.082;2022-12-07T05:04:47;3.55;;;2.03;;
54241;SDS011;40156;51.080;17.082;2022-12-07T05:07:14;3.65;;;2.47;;
54241;SDS011;40156;51.080;17.082;2022-12-07T05:09:42;3.75;;;2.42;;
54241;SDS011;40156;51.080;17.082;2022-12-07T05:12:09;4.50;;;2.78;;
54241;SDS011;40156;51.080;17.082;2022-12-07T05:14:37;4.43;;;2.05;;
54241;SDS011;40156;51.080;17.082;2022-12-07T05:17:04;3.75;;;1.85;;
54241;SDS011;40156;51.080;17.082;2022-12-07T05:19:32;7.15;;;3.63;;
54241;SDS011;40156;51.080;17.082;2022-12-07T05:21:59;6.68;;;3.00;;
54241;SDS011;40156;51.080;17.082;2022-12-07T05:24:27;7.07;;;3.50;;
54241;SDS011;40156;51.080;17.082;2022-12-07T05:26:54;8.35;;;4.35;;
54241;SDS011;40156;51.080;17.082;2022-12-07T05:29:22;4.22;;;3.25;;
54241;SDS011;40156;51.080;17.082;2022-12-07T05:31:49;7.95;;;4.97;;
54241;SDS011;40156;51.080;17.082;2022-12-07T05:34:17;8.20;;;4.55;;
54241;SDS011;40156;51.080;17.082;2022-12-07T05:36:45;13.10;;;5.03;;
54241;SDS011;40156;51.080;17.082;2022-12-07T05:39:12;7.00;;;4.00;;
54241;SDS011;40156;51.080;17.082;2022-12-07T05:41:40;8.52;;;4.45;;
54241;SDS011;40156;51.080;17.082;2022-12-07T05:44:07;5.53;;;3.15;;
54241;SDS011;40156;51.080;17.082;2022-12-07T05:49:49;9.00;;;4.30;;
54241;SDS011;40156;51.080;17.082;2022-12-07T05:52:16;8.57;;;4.90;;
54241;SDS011;40156;51.080;17.082;2022-12-07T05:54:44;9.68;;;5.50;;
54241;SDS011;40156;51.080;17.082;2022-12-07T05:57:11;11.25;;;5.25;;
54241;SDS011;40156;51.080;17.082;2022-12-07T05:59:39;11.07;;;5.28;;
54241;SDS011;40156;51.080;17.082;2022-12-07T06:02:07;9.93;;;4.68;;
54241;SDS011;40156;51.080;17.082;2022-12-07T06:04:37;9.73;;;4.60;;
54241;SDS011;40156;51.080;17.082;2022-12-07T06:07:05;11.30;;;4.90;;
54241;SDS011;40156;51.080;17.082;2022-12-07T06:09:33;11.70;;;4.90;;
54241;SDS011;40156;51.080;17.082;2022-12-07T06:12:01;16.10;;;6.32;;
54241;SDS011;40156;51.080;17.082;2022-12-07T06:14:29;12.73;;;6.18;;
54241;SDS011;40156;51.080;17.082;2022-12-07T06:20:38;12.60;;;5.85;;
54241;SDS011;40156;51.080;17.082;2022-12-07T06:23:09;16.63;;;7.22;;
54241;SDS011;40156;51.080;17.082;2022-12-07T06:25:36;14.52;;;7.05;;
54241;SDS011;40156;51.080;17.082;2022-12-07T06:28:04;17.88;;;7.32;;
54241;SDS011;40156;51.080;17.082;2022-12-07T06:30:31;17.90;;;6.60;;
54241;SDS011;40156;51.080;17.082;2022-12-07T06:32:59;13.95;;;6.45;;
54241;SDS011;40156;51.080;17.082;2022-12-07T06:35:26;14.02;;;6.65;;
54241;SDS011;40156;51.080;17.082;2022-12-07T06:37:54;15.73;;;7.82;;
54241;SDS011;40156;51.080;17.082;2022-12-07T06:43:44;19.10;;;7.55;;
54241;SDS011;40156;51.080;17.082;2022-12-07T06:46:12;13.40;;;5.68;;
54241;SDS011;40156;51.080;17.082;2022-12-07T06:48:40;17.45;;;7.65;;
54241;SDS011;40156;51.080;17.082;2022-12-07T06:51:08;14.07;;;6.50;;
54241;SDS011;40156;51.080;17.082;2022-12-07T06:53:35;15.57;;;7.00;;
54241;SDS011;40156;51.080;17.082;2022-12-07T06:56:04;14.75;;;6.45;;
54241;SDS011;40156;51.080;17.082;2022-12-07T06:58:32;13.60;;;6.88;;
54241;SDS011;40156;51.080;17.082;2022-12-07T07:04:21;15.55;;;6.38;;
54241;SDS011;40156;51.080;17.082;2022-12-07T07:06:49;15.23;;;6.78;;
54241;SDS011;40156;51.080;17.082;2022-12-07T07:09:24;15.02;;;6.55;;
54241;SDS011;40156;51.080;17.082;2022-12-07T07:11:51;12.43;;;5.50;;
54241;SDS011;40156;51.080;17.082;2022-12-07T07:14:19;19.70;;;7.07;;
54241;SDS011;40156;51.080;17.082;2022-12-07T07:16:46;14.35;;;6.53;;
54241;SDS011;40156;51.080;17.082;2022-12-07T07:19:14;13.95;;;6.55;;
54241;SDS011;40156;51.080;17.082;2022-12-07T07:21:42;15.10;;;6.43;;
54241;SDS011;40156;51.080;17.082;2022-12-07T07:24:09;13.00;;;5.97;;
54241;SDS011;40156;51.080;17.082;2022-12-07T07:26:37;14.65;;;6.43;;
54241;SDS011;40156;51.080;17.082;2022-12-07T07:29:04;12.20;;;5.70;;
54241;SDS011;40156;51.080;17.082;2022-12-07T07:31:32;13.10;;;5.78;;
54241;SDS011;40156;51.080;17.082;2022-12-07T07:33:59;13.00;;;6.18;;
54241;SDS011;40156;51.080;17.082;2022-12-07T07:36:27;12.95;;;6.15;;
54241;SDS011;40156;51.080;17.082;2022-12-07T07:38:54;14.75;;;6.68;;
54241;SDS011;40156;51.080;17.082;2022-12-07T07:41:22;15.30;;;6.72;;
54241;SDS011;40156;51.080;17.082;2022-12-07T07:43:49;13.80;;;6.65;;
54241;SDS011;40156;51.080;17.082;2022-12-07T07:46:17;15.32;;;5.90;;
54241;SDS011;40156;51.080;17.082;2022-12-07T07:48:44;12.10;;;6.38;;
54241;SDS011;40156;51.080;17.082;2022-12-07T07:51:12;14.88;;;5.93;;
54241;SDS011;40156;51.080;17.082;2022-12-07T07:53:39;12.75;;;5.55;;
54241;SDS011;40156;51.080;17.082;2022-12-07T07:56:07;11.38;;;5.35;;
54241;SDS011;40156;51.080;17.082;2022-12-07T07:58:34;11.93;;;5.78;;
54241;SDS011;40156;51.080;17.082;2022-12-07T08:01:05;13.65;;;6.05;;
54241;SDS011;40156;51.080;17.082;2022-12-07T08:03:33;14.05;;;6.72;;
54241;SDS011;40156;51.080;17.082;2022-12-07T08:06:02;12.90;;;6.40;;
54241;SDS011;40156;51.080;17.082;2022-12-07T08:08:29;13.05;;;5.50;;
54241;SDS011;40156;51.080;17.082;2022-12-07T08:10:57;12.43;;;6.57;;
54241;SDS011;40156;51.080;17.082;2022-12-07T08:13:25;12.10;;;6.03;;
54241;SDS011;40156;51.080;17.082;2022-12-07T08:15:57;10.68;;;5.38;;
54241;SDS011;40156;51.080;17.082;2022-12-07T08:18:25;13.05;;;5.55;;
54241;SDS011;40156;51.080;17.082;2022-12-07T08:20:58;14.98;;;5.70;;
54241;SDS011;40156;51.080;17.082;2022-12-07T08:23:25;13.77;;;6.03;;
54241;SDS011;40156;51.080;17.082;2022-12-07T08:26:06;10.60;;;5.55;;
54241;SDS011;40156;51.080;17.082;2022-12-07T08:28:34;11.45;;;5.65;;
54241;SDS011;40156;51.080;17.082;2022-12-07T08:31:02;17.55;;;8.02;;
54241;SDS011;40156;51.080;17.082;2022-12-07T08:33:32;15.80;;;6.93;;
54241;SDS011;40156;51.080;17.082;2022-12-07T08:36:01;13.55;;;6.20;;
54241;SDS011;40156;51.080;17.082;2022-12-07T08:38:28;16.40;;;7.25;;
54241;SDS011;40156;51.080;17.082;2022-12-07T08:40:58;14.90;;;7.57;;
54241;SDS011;40156;51.080;17.082;2022-12-07T08:43:26;14.77;;;6.95;;
54241;SDS011;40156;51.080;17.082;2022-12-07T08:45:58;12.82;;;6.32;;
54241;SDS011;40156;51.080;17.082;2022-12-07T08:48:28;10.40;;;5.03;;
54241;SDS011;40156;51.080;17.082;2022-12-07T08:50:56;11.32;;;5.85;;
54241;SDS011;40156;51.080;17.082;2022-12-07T08:53:24;9.95;;;5.72;;
54241;SDS011;40156;51.080;17.082;2022-12-07T08:55:52;9.45;;;5.72;;
54241;SDS011;40156;51.080;17.082;2022-12-07T08:58:20;11.38;;;6.43;;
54241;SDS011;40156;51.080;17.082;2022-12-07T09:00:47;11.82;;;6.55;;
54241;SDS011;40156;51.080;17.082;2022-12-07T09:03:15;12.43;;;6.07;;
54241;SDS011;40156;51.080;17.082;2022-12-07T09:05:42;11.05;;;6.43;;
54241;SDS011;40156;51.080;17.082;2022-12-07T09:08:10;11.32;;;5.60;;
54241;SDS011;40156;51.080;17.082;2022-12-07T09:10:38;8.23;;;5.55;;
54241;SDS011;40156;51.080;17.082;2022-12-07T09:13:05;9.10;;;5.30;;
54241;SDS011;40156;51.080;17.082;2022-12-07T09:15:33;9.27;;;5.70;;
54241;SDS011;40156;51.080;17.082;2022-12-07T09:18:00;7.93;;;5.00;;
54241;SDS011;40156;51.080;17.082;2022-12-07T09:20:28;8.45;;;5.05;;
54241;SDS011;40156;51.080;17.082;2022-12-07T09:22:55;8.55;;;4.63;;
54241;SDS011;40156;51.080;17.082;2022-12-07T09:25:23;8.13;;;5.20;;
54241;SDS011;40156;51.080;17.082;2022-12-07T09:27:57;7.30;;;4.15;;
54241;SDS011;40156;51.080;17.082;2022-12-07T09:30:26;8.00;;;4.10;;
54241;SDS011;40156;51.080;17.082;2022-12-07T09:32:54;9.52;;;5.00;;
54241;SDS011;40156;51.080;17.082;2022-12-07T09:35:26;8.00;;;3.72;;
54241;SDS011;40156;51.080;17.082;2022-12-07T09:37:54;5.43;;;3.55;;
54241;SDS011;40156;51.080;17.082;2022-12-07T09:40:22;7.47;;;4.40;;
54241;SDS011;40156;51.080;17.082;2022-12-07T09:42:53;4.63;;;3.28;;
54241;SDS011;40156;51.080;17.082;2022-12-07T09:47:49;7.85;;;3.80;;
54241;SDS011;40156;51.080;17.082;2022-12-07T09:50:19;8.35;;;4.65;;
54241;SDS011;40156;51.080;17.082;2022-12-07T09:52:47;8.32;;;4.45;;
54241;SDS011;40156;51.080;17.082;2022-12-07T09:55:25;6.05;;;3.33;;
54241;SDS011;40156;51.080;17.082;2022-12-07T09:57:54;6.80;;;3.95;;
54241;SDS011;40156;51.080;17.082;2022-12-07T10:00:22;7.28;;;4.22;;
54241;SDS011;40156;51.080;17.082;2022-12-07T10:02:59;9.07;;;4.82;;
54241;SDS011;40156;51.080;17.082;2022-12-07T10:05:31;7.18;;;4.22;;
54241;SDS011;40156;51.080;17.082;2022-12-07T10:07:59;7.15;;;4.03;;
54241;SDS011;40156;51.080;17.082;2022-12-07T10:10:31;7.22;;;3.92;;
54241;SDS011;40156;51.080;17.082;2022-12-07T10:13:09;8.07;;;4.15;;
54241;SDS011;40156;51.080;17.082;2022-12-07T10:15:56;9.85;;;4.70;;
54241;SDS011;40156;51.080;17.082;2022-12-07T10:18:32;8.15;;;3.97;;
54241;SDS011;40156;51.080;17.082;2022-12-07T10:24:46;10.40;;;4.82;;
54241;SDS011;40156;51.080;17.082;2022-12-07T10:35:57;10.45;;;5.10;;
54241;SDS011;40156;51.080;17.082;2022-12-07T10:38:26;10.70;;;5.13;;
54241;SDS011;40156;51.080;17.082;2022-12-07T10:41:06;9.93;;;4.57;;
54241;SDS011;40156;51.080;17.082;2022-12-07T10:43:34;12.50;;;5.32;;
54241;SDS011;40156;51.080;17.082;2022-12-07T10:57:14;8.75;;;4.10;;
54241;SDS011;40156;51.080;17.082;2022-12-07T10:59:50;8.73;;;3.97;;
54241;SDS011;40156;51.080;17.082;2022-12-07T11:05:11;5.20;;;2.22;;
54241;SDS011;40156;51.080;17.082;2022-12-07T11:08:09;3.28;;;2.30;;
54241;SDS011;40156;51.080;17.082;2022-12-07T11:10:55;3.00;;;2.10;;
54241;SDS011;40156;51.080;17.082;2022-12-07T11:21:24;5.50;;;2.72;;
54241;SDS011;40156;51.080;17.082;2022-12-07T11:23:56;5.47;;;2.92;;
54241;SDS011;40156;51.080;17.082;2022-12-07T11:26:46;6.63;;;3.45;;
54241;SDS011;40156;51.080;17.082;2022-12-07T11:37:35;4.60;;;2.75;;
54241;SDS011;40156;51.080;17.082;2022-12-07T11:40:17;5.60;;;2.95;;
54241;SDS011;40156;51.080;17.082;2022-12-07T11:45:33;6.53;;;3.42;;
54241;SDS011;40156;51.080;17.082;2022-12-07T11:48:02;7.25;;;3.40;;
54241;SDS011;40156;51.080;17.082;2022-12-07T11:50:37;5.65;;;3.38;;
54241;SDS011;40156;51.080;17.082;2022-12-07T11:56:21;5.40;;;2.55;;
54241;SDS011;40156;51.080;17.082;2022-12-07T12:15:42;7.00;;;2.30;;
54241;SDS011;40156;51.080;17.082;2022-12-07T12:20:50;5.55;;;2.72;;
54241;SDS011;40156;51.080;17.082;2022-12-07T12:23:34;6.85;;;3.38;;
54241;SDS011;40156;51.080;17.082;2022-12-07T12:26:04;5.97;;;3.70;;
54241;SDS011;40156;51.080;17.082;2022-12-07T12:28:35;8.90;;;3.35;;
54241;SDS011;40156;51.080;17.082;2022-12-07T12:33:32;3.78;;;2.17;;
54241;SDS011;40156;51.080;17.082;2022-12-07T12:36:20;4.47;;;2.63;;
54241;SDS011;40156;51.080;17.082;2022-12-07T12:49:35;7.78;;;3.25;;
54241;SDS011;40156;51.080;17.082;2022-12-07T12:52:45;4.20;;;2.58;;
54241;SDS011;40156;51.080;17.082;2022-12-07T12:58:31;4.90;;;3.15;;
54241;SDS011;40156;51.080;17.082;2022-12-07T13:03:27;6.95;;;2.63;;
54241;SDS011;40156;51.080;17.082;2022-12-07T13:11:29;5.38;;;3.40;;
54241;SDS011;40156;51.080;17.082;2022-12-07T13:16:44;5.18;;;3.40;;
54241;SDS011;40156;51.080;17.082;2022-12-07T13:19:48;6.40;;;2.67;;
54241;SDS011;40156;51.080;17.082;2022-12-07T13:26:36;7.25;;;3.20;;
54241;SDS011;40156;51.080;17.082;2022-12-07T13:29:05;5.72;;;3.92;;
54241;SDS011;40156;51.080;17.082;2022-12-07T13:31:39;5.95;;;3.00;;
54241;SDS011;40156;51.080;17.082;2022-12-07T13:34:27;9.25;;;4.07;;
54241;SDS011;40156;51.080;17.082;2022-12-07T13:36:55;11.02;;;3.83;;
54241;SDS011;40156;51.080;17.082;2022-12-07T13:39:24;8.07;;;4.03;;
54241;SDS011;40156;51.080;17.082;2022-12-07T13:41:55;7.03;;;3.53;;
54241;SDS011;40156;51.080;17.082;2022-12-07T13:44:24;8.07;;;3.20;;
54241;SDS011;40156;51.080;17.082;2022-12-07T13:46:59;5.25;;;2.45;;
54241;SDS011;40156;51.080;17.082;2022-12-07T13:49:32;8.00;;;3.50;;
54241;SDS011;40156;51.080;17.082;2022-12-07T13:54:44;8.52;;;3.38;;
54241;SDS011;40156;51.080;17.082;2022-12-07T13:57:12;5.83;;;3.67;;
54241;SDS011;40156;51.080;17.082;2022-12-07T13:59:39;8.98;;;3.95;;
54241;SDS011;40156;51.080;17.082;2022-12-07T14:02:17;9.05;;;3.60;;
54241;SDS011;40156;51.080;17.082;2022-12-07T14:04:49;12.32;;;4.97;;
54241;SDS011;40156;51.080;17.082;2022-12-07T14:07:23;6.05;;;3.35;;
54241;SDS011;40156;51.080;17.082;2022-12-07T14:09:58;6.85;;;3.53;;
54241;SDS011;40156;51.080;17.082;2022-12-07T14:12:26;8.00;;;4.03;;
54241;SDS011;40156;51.080;17.082;2022-12-07T14:14:55;5.18;;;3.38;;
54241;SDS011;40156;51.080;17.082;2022-12-07T14:17:23;12.07;;;4.30;;
54241;SDS011;40156;51.080;17.082;2022-12-07T14:19:58;8.07;;;4.47;;
54241;SDS011;40156;51.080;17.082;2022-12-07T14:22:53;7.88;;;4.00;;
54241;SDS011;40156;51.080;17.082;2022-12-07T14:25:32;7.93;;;4.18;;
54241;SDS011;40156;51.080;17.082;2022-12-07T14:28:00;10.18;;;5.30;;
54241;SDS011;40156;51.080;17.082;2022-12-07T14:30:29;10.77;;;4.80;;
54241;SDS011;40156;51.080;17.082;2022-12-07T14:33:01;8.20;;;4.70;;
54241;SDS011;40156;51.080;17.082;2022-12-07T14:35:30;8.80;;;4.30;;
54241;SDS011;40156;51.080;17.082;2022-12-07T14:37:57;8.32;;;4.18;;
54241;SDS011;40156;51.080;17.082;2022-12-07T14:40:26;7.47;;;3.72;;
54241;SDS011;40156;51.080;17.082;2022-12-07T14:42:55;9.40;;;4.78;;
54241;SDS011;40156;51.080;17.082;2022-12-07T14:45:24;7.75;;;4.15;;
54241;SDS011;40156;51.080;17.082;2022-12-07T14:51:33;10.50;;;4.45;;
54241;SDS011;40156;51.080;17.082;2022-12-07T14:54:41;7.78;;;4.00;;
54241;SDS011;40156;51.080;17.082;2022-12-07T14:57:27;7.97;;;4.13;;
54241;SDS011;40156;51.080;17.082;2022-12-07T15:00:14;5.30;;;3.47;;
54241;SDS011;40156;51.080;17.082;2022-12-07T15:02:42;9.82;;;4.30;;
54241;SDS011;40156;51.080;17.082;2022-12-07T15:05:10;8.20;;;4.38;;
54241;SDS011;40156;51.080;17.082;2022-12-07T15:07:51;6.72;;;3.50;;
54241;SDS011;40156;51.080;17.082;2022-12-07T15:10:20;8.23;;;4.10;;
54241;SDS011;40156;51.080;17.082;2022-12-07T15:12:50;7.00;;;4.18;;
54241;SDS011;40156;51.080;17.082;2022-12-07T15:18:32;7.78;;;3.35;;
54241;SDS011;40156;51.080;17.082;2022-12-07T15:20:59;6.63;;;3.72;;
54241;SDS011;40156;51.080;17.082;2022-12-07T15:23:27;6.78;;;4.05;;
54241;SDS011;40156;51.080;17.082;2022-12-07T15:25:54;7.13;;;3.95;;
54241;SDS011;40156;51.080;17.082;2022-12-07T15:28:23;9.13;;;4.97;;
54241;SDS011;40156;51.080;17.082;2022-12-07T15:30:50;9.57;;;4.10;;
54241;SDS011;40156;51.080;17.082;2022-12-07T15:33:18;7.00;;;3.95;;
54241;SDS011;40156;51.080;17.082;2022-12-07T15:39:12;7.13;;;4.35;;
54241;SDS011;40156;51.080;17.082;2022-12-07T15:41:41;7.25;;;3.85;;
54241;SDS011;40156;51.080;17.082;2022-12-07T15:44:12;6.15;;;3.60;;
54241;SDS011;40156;51.080;17.082;2022-12-07T15:46:40;6.30;;;3.28;;
54241;SDS011;40156;51.080;17.082;2022-12-07T15:49:09;7.20;;;3.53;;
54241;SDS011;40156;51.080;17.082;2022-12-07T15:51:37;6.72;;;4.03;;
54241;SDS011;40156;51.080;17.082;2022-12-07T15:54:06;8.57;;;4.00;;
54241;SDS011;40156;51.080;17.082;2022-12-07T15:56:33;6.45;;;3.55;;
54241;SDS011;40156;51.080;17.082;2022-12-07T15:59:01;6.60;;;3.80;;
54241;SDS011;40156;51.080;17.082;2022-12-07T16:01:28;9.15;;;4.25;;
54241;SDS011;40156;51.080;17.082;2022-12-07T16:03:56;8.43;;;4.20;;
54241;SDS011;40156;51.080;17.082;2022-12-07T16:06:24;13.48;;;5.13;;
54241;SDS011;40156;51.080;17.082;2022-12-07T16:08:52;12.90;;;5.28;;
54241;SDS011;40156;51.080;17.082;2022-12-07T16:11:19;13.95;;;5.53;;
54241;SDS011;40156;51.080;17.082;2022-12-07T16:13:47;13.30;;;6.43;;
54241;SDS011;40156;51.080;17.082;2022-12-07T16:16:15;9.48;;;5.68;;
54241;SDS011;40156;51.080;17.082;2022-12-07T16:18:44;11.35;;;5.28;;
54241;SDS011;40156;51.080;17.082;2022-12-07T16:21:12;10.63;;;4.70;;
54241;SDS011;40156;51.080;17.082;2022-12-07T16:23:40;10.20;;;5.20;;
54241;SDS011;40156;51.080;17.082;2022-12-07T16:26:12;12.57;;;6.22;;
54241;SDS011;40156;51.080;17.082;2022-12-07T16:31:54;12.60;;;7.18;;
54241;SDS011;40156;51.080;17.082;2022-12-07T16:34:22;13.40;;;5.93;;
54241;SDS011;40156;51.080;17.082;2022-12-07T16:36:51;9.00;;;5.43;;
54241;SDS011;40156;51.080;17.082;2022-12-07T16:39:34;8.77;;;4.55;;
54241;SDS011;40156;51.080;17.082;2022-12-07T16:42:21;8.30;;;4.45;;
54241;SDS011;40156;51.080;17.082;2022-12-07T16:45:07;8.80;;;4.40;;
54241;SDS011;40156;51.080;17.082;2022-12-07T16:47:37;4.97;;;3.03;;
54241;SDS011;40156;51.080;17.082;2022-12-07T16:50:04;5.15;;;3.65;;
54241;SDS011;40156;51.080;17.082;2022-12-07T16:52:32;5.82;;;3.30;;
54241;SDS011;40156;51.080;17.082;2022-12-07T16:54:59;7.00;;;3.80;;
54241;SDS011;40156;51.080;17.082;2022-12-07T16:57:27;5.68;;;3.15;;
54241;SDS011;40156;51.080;17.082;2022-12-07T16:59:57;5.60;;;3.47;;
54241;SDS011;40156;51.080;17.082;2022-12-07T17:02:24;7.13;;;3.55;;
54241;SDS011;40156;51.080;17.082;2022-12-07T17:04:52;9.95;;;3.90;;
54241;SDS011;40156;51.080;17.082;2022-12-07T17:07:19;9.82;;;4.53;;
54241;SDS011;40156;51.080;17.082;2022-12-07T17:09:47;8.30;;;4.28;;
54241;SDS011;40156;51.080;17.082;2022-12-07T17:12:14;7.80;;;4.22;;
54241;SDS011;40156;51.080;17.082;2022-12-07T17:14:42;8.35;;;4.28;;
54241;SDS011;40156;51.080;17.082;2022-12-07T17:17:09;9.60;;;3.63;;
54241;SDS011;40156;51.080;17.082;2022-12-07T17:19:37;10.45;;;4.45;;
54241;SDS011;40156;51.080;17.082;2022-12-07T17:22:05;6.72;;;4.00;;
54241;SDS011;40156;51.080;17.082;2022-12-07T17:24:32;10.48;;;4.15;;
54241;SDS011;40156;51.080;17.082;2022-12-07T17:27:00;11.00;;;4.70;;
54241;SDS011;40156;51.080;17.082;2022-12-07T17:29:27;8.65;;;3.80;;
54241;SDS011;40156;51.080;17.082;2022-12-07T17:31:55;10.05;;;4.45;;
54241;SDS011;40156;51.080;17.082;2022-12-07T17:34:22;8.98;;;4.35;;
54241;SDS011;40156;51.080;17.082;2022-12-07T17:36:50;8.40;;;4.10;;
54241;SDS011;40156;51.080;17.082;2022-12-07T17:39:18;12.63;;;5.88;;
54241;SDS011;40156;51.080;17.082;2022-12-07T17:41:45;10.48;;;4.97;;
54241;SDS011;40156;51.080;17.082;2022-12-07T17:44:14;10.80;;;5.25;;